Cathlamet — WYR7641 — position and weather

sailwx.info

Track history (hours):
 
Tides and Currents Weather Stations Pressure Air Temp Water Temp Dewpoint Dewpoint Depression Visibility Wind Speed Wind Dir Waves Ship Positions

Cathlamet

Owner: WASHINGTON, STATE OF; Dept. of Transportation, OLYMPIA, WA. More information available from US FCC via Universal Licensing System and Coast Guard Vessel Documentation Center.

Last reported at 2017-Feb-21 18:34 UTC. Time now 2017-Feb-21 19:05 UTC.
Position N 47°31' W 122°28'.

Length 100 m.

Type: Passenger vessel. MMSI: 366773070.

Date/timePositionNaut miles runAvg speedWind from/ knotsBaromVisibWave heightAir tempDewpointWater temp
2017-Feb-21 18:34N 47°31' W 122°28'0 0.2
2017-Feb-21 17:33N 47°31' W 122°28'3 2.7
2017-Feb-21 16:33N 47°31' W 122°24'3 2.7
2017-Feb-21 15:33N 47°31' W 122°28'0 0.1
2017-Feb-21 14:33N 47°31' W 122°28'0 0.0
2017-Feb-21 13:33N 47°31' W 122°28'0 0.0
2017-Feb-21 12:33N 47°31' W 122°28'1 0.5
2017-Feb-21 11:34N 47°31' W 122°28'1 0.5
2017-Feb-21 10:33N 47°31' W 122°28'1 1.3
2017-Feb-21 09:33N 47°31' W 122°30'2 1.9
2017-Feb-21 08:33N 47°31' W 122°27'2 2.1
2017-Feb-21 07:33N 47°31' W 122°24'3 2.5
2017-Feb-21 06:34N 47°31' W 122°28'2 1.5
2017-Feb-21 05:33N 47°31' W 122°30'2 1.5
2017-Feb-21 04:34N 47°31' W 122°28'0 0.3
2017-Feb-21 03:33N 47°31' W 122°28'3 2.8
2017-Feb-21 02:34N 47°31' W 122°24'3 2.8
2017-Feb-21 01:34N 47°31' W 122°28'0 0.0
2017-Feb-21 00:33N 47°31' W 122°28'1 0.8
2017-Feb-20 23:34N 47°31' W 122°27'2 1.8
2017-Feb-20 22:33N 47°31' W 122°24'3 2.6
2017-Feb-20 21:34N 47°31' W 122°28'1 1.3
2017-Feb-20 20:33N 47°31' W 122°26'1 1.2
2017-Feb-20 19:33N 47°31' W 122°28'0 0.1
2017-Feb-20 18:33N 47°31' W 122°28'0 0.3
2017-Feb-20 17:34N 47°31' W 122°28'3 2.7
2017-Feb-20 16:33N 47°31' W 122°24'3 2.8
2017-Feb-20 15:34N 47°31' W 122°28'0 0.1
2017-Feb-20 14:33N 47°31' W 122°28'0 0.0
2017-Feb-20 13:34N 47°31' W 122°28'0 0.0
2017-Feb-20 12:33N 47°31' W 122°28'0 0.0
2017-Feb-20 11:33N 47°31' W 122°28'0 0.0
2017-Feb-20 10:33N 47°31' W 122°28'0 0.0
2017-Feb-20 09:33N 47°31' W 122°28'0 0.0
2017-Feb-20 08:33N 47°31' W 122°28'0 0.0
2017-Feb-20 07:34N 47°31' W 122°28'0 0.0
2017-Feb-20 06:33N 47°31' W 122°28'1 1.2
2017-Feb-20 05:34N 47°31' W 122°30'1 1.4
2017-Feb-20 04:33N 47°31' W 122°28'0 0.3
2017-Feb-20 03:33N 47°31' W 122°27'0 0.5
2017-Feb-20 02:33N 47°31' W 122°28'1 0.6
2017-Feb-20 01:34N 47°31' W 122°27'2 1.6
2017-Feb-20 00:34N 47°31' W 122°30'4 4.0
2017-Feb-19 23:33N 47°31' W 122°24'3 2.8
2017-Feb-19 22:34N 47°31' W 122°28'0 0.1
2017-Feb-19 21:34N 47°31' W 122°28'2 2.1
2017-Feb-19 20:33N 47°31' W 122°25'2 1.6
2017-Feb-19 19:33N 47°31' W 122°27'1 0.7
2017-Feb-19 18:33N 47°31' W 122°26'2 1.5
2017-Feb-19 17:33N 47°31' W 122°24'4 4.0
2017-Feb-19 16:33N 47°31' W 122°30'4 3.9
2017-Feb-19 15:33N 47°31' W 122°24'3 2.6
2017-Feb-19 14:33N 47°31' W 122°28'0 0.0
2017-Feb-19 13:33N 47°31' W 122°28'0 0.0
2017-Feb-19 12:33N 47°31' W 122°28'0 0.0
2017-Feb-19 11:33N 47°31' W 122°28'0 0.0
2017-Feb-19 10:33N 47°31' W 122°28'0 0.0
2017-Feb-19 09:33N 47°31' W 122°28'0 0.0
2017-Feb-19 08:33N 47°31' W 122°28'0 0.0
2017-Feb-19 07:33N 47°31' W 122°28'0 0.0
2017-Feb-19 06:33N 47°31' W 122°28'1 1.0
2017-Feb-19 05:34N 47°31' W 122°29'1 1.1
2017-Feb-19 04:33N 47°31' W 122°28'2 1.9
2017-Feb-19 03:33N 47°31' W 122°25'3 3.2
2017-Feb-19 02:33N 47°31' W 122°30'4 4.1
2017-Feb-19 01:33N 47°31' W 122°24'3 3.2
2017-Feb-19 00:34N 47°31' W 122°28'2 2.0
2017-Feb-18 23:33N 47°31' W 122°25'2 1.7
2017-Feb-18 22:34N 47°31' W 122°28'0 0.0
2017-Feb-18 21:33N 47°31' W 122°28'0 0.2
2017-Feb-18 20:34N 47°31' W 122°28'0 0.2
2017-Feb-18 19:34N 47°31' W 122°28'1 1.1
2017-Feb-18 18:34N 47°31' W 122°26'2 1.6
2017-Feb-18 17:34N 47°31' W 122°24'4 4.0
2017-Feb-18 16:33N 47°31' W 122°30'4 4.0
2017-Feb-18 15:34N 47°31' W 122°24'3 2.7
2017-Feb-18 14:33N 47°31' W 122°28'0 0.0
2017-Feb-18 13:33N 47°31' W 122°28'0 0.0
2017-Feb-18 12:33N 47°31' W 122°28'0 0.0
2017-Feb-18 11:33N 47°31' W 122°28'0 0.0
2017-Feb-18 10:33N 47°31' W 122°28'0 0.0
2017-Feb-18 09:33N 47°31' W 122°28'0 0.0
2017-Feb-18 08:33N 47°31' W 122°28'0 0.0
2017-Feb-18 07:33N 47°31' W 122°28'0 0.0
2017-Feb-18 06:33N 47°31' W 122°28'0 0.5
2017-Feb-18 05:33N 47°31' W 122°27'1 0.6
2017-Feb-18 04:33N 47°31' W 122°28'3 3.0
2017-Feb-18 03:33N 47°31' W 122°24'4 4.1
2017-Feb-18 02:33N 47°31' W 122°30'4 4.1
2017-Feb-18 01:33N 47°31' W 122°24'0 0.0
2017-Feb-18 00:33N 47°31' W 122°24'0 0.0
2017-Feb-17 23:34N 47°31' W 122°24'3 3.2
2017-Feb-17 22:33N 47°31' W 122°29'2 1.6
2017-Feb-17 21:34N 47°31' W 122°26'2 1.7
2017-Feb-17 20:33N 47°31' W 122°29'3 3.5
2017-Feb-17 19:33N 47°31' W 122°24'0 0.0
2017-Feb-17 18:33N 47°31' W 122°24'3 2.8
2017-Feb-17 17:34N 47°31' W 122°28'0 0.0
2017-Feb-17 16:33N 47°31' W 122°28'3 2.7
2017-Feb-17 15:33N 47°31' W 122°24'0 0.2
2017-Feb-17 14:33N 47°31' W 122°24'3 2.5
2017-Feb-17 13:33N 47°31' W 122°28'0 0.0
2017-Feb-17 12:34N 47°31' W 122°28'1 0.8
2017-Feb-17 11:33N 47°31' W 122°29'1 0.8
2017-Feb-17 10:33N 47°31' W 122°28'1 1.3
2017-Feb-17 09:34N 47°31' W 122°30'2 1.9
2017-Feb-17 08:33N 47°31' W 122°27'2 2.1
2017-Feb-17 07:33N 47°31' W 122°24'3 2.7
2017-Feb-17 06:34N 47°31' W 122°28'0 0.1
2017-Feb-17 05:34N 47°31' W 122°28'0 0.5
2017-Feb-17 04:33N 47°31' W 122°28'3 2.7
2017-Feb-17 03:33N 47°31' W 122°24'4 3.7
2017-Feb-17 02:33N 47°31' W 122°30'4 4.1
2017-Feb-17 01:33N 47°31' W 122°24'0 0.0
2017-Feb-17 00:33N 47°31' W 122°24'0 0.0
2017-Feb-16 23:33N 47°31' W 122°24'3 3.5
2017-Feb-16 22:33N 47°32' W 122°29'2 1.9
2017-Feb-16 21:34N 47°31' W 122°26'1 1.1
2017-Feb-16 20:34N 47°31' W 122°28'3 2.7
2017-Feb-16 19:33N 47°31' W 122°24'1 0.5
2017-Feb-16 18:34N 47°31' W 122°25'2 2.3
2017-Feb-16 17:33N 47°31' W 122°28'0 0.2
2017-Feb-16 16:34N 47°31' W 122°28'3 2.6
2017-Feb-16 15:34N 47°31' W 122°24'0 0.0
2017-Feb-16 14:34N 47°31' W 122°24'3 2.7
2017-Feb-16 13:34N 47°31' W 122°28'0 0.1
2017-Feb-16 12:34N 47°31' W 122°28'1 0.8
2017-Feb-16 11:34N 47°31' W 122°27'1 0.8
2017-Feb-16 10:34N 47°31' W 122°28'1 1.3
2017-Feb-16 09:34N 47°31' W 122°30'1 1.1
2017-Feb-16 08:33N 47°31' W 122°28'3 2.9
2017-Feb-16 07:33N 47°31' W 122°24'3 2.7
2017-Feb-16 06:33N 47°31' W 122°28'0 0.3
2017-Feb-16 05:33N 47°31' W 122°27'0 0.4
2017-Feb-16 04:34N 47°31' W 122°28'2 2.4
2017-Feb-16 03:33N 47°31' W 122°24'4 3.7
2017-Feb-16 02:33N 47°31' W 122°30'4 4.0
2017-Feb-16 01:33N 47°31' W 122°24'0 0.0
2017-Feb-16 00:33N 47°31' W 122°24'0 0.0
2017-Feb-15 23:33N 47°31' W 122°24'2 2.3
2017-Feb-15 22:33N 47°32' W 122°27'1 1.0
2017-Feb-15 21:33N 47°31' W 122°26'1 1.4
2017-Feb-15 20:34N 47°31' W 122°28'3 2.7
2017-Feb-15 19:33N 47°31' W 122°24'0 0.0
2017-Feb-15 18:34N 47°31' W 122°24'3 2.8
2017-Feb-15 17:33N 47°31' W 122°28'0 0.0
2017-Feb-15 16:33N 47°31' W 122°28'2 2.4
2017-Feb-15 15:33N 47°31' W 122°24'0 0.1
2017-Feb-15 14:33N 47°31' W 122°24'3 2.6
2017-Feb-15 13:34N 47°31' W 122°28'0 0.0
2017-Feb-15 12:33N 47°31' W 122°28'1 0.8
2017-Feb-15 11:33N 47°31' W 122°29'1 0.8
2017-Feb-15 10:33N 47°31' W 122°28'1 1.2
2017-Feb-15 09:33N 47°31' W 122°30'2 1.9
2017-Feb-15 08:33N 47°31' W 122°27'2 2.1
2017-Feb-15 07:33N 47°31' W 122°24'2 2.4
2017-Feb-15 06:33N 47°31' W 122°27'0 0.4
2017-Feb-15 05:33N 47°31' W 122°28'0 0.1
2017-Feb-15 04:34N 47°31' W 122°28'3 2.7
2017-Feb-15 03:33N 47°31' W 122°24'4 4.0
2017-Feb-15 02:33N 47°31' W 122°30'4 4.0
2017-Feb-15 01:33N 47°31' W 122°24'0 0.0
2017-Feb-15 00:33N 47°31' W 122°24'0 0.0
2017-Feb-14 23:33N 47°31' W 122°24'2 2.0
2017-Feb-14 22:33N 47°32' W 122°27'1 0.7
2017-Feb-14 21:34N 47°31' W 122°26'2 1.7
2017-Feb-14 20:33N 47°31' W 122°28'3 3.1
2017-Feb-14 19:33N 47°31' W 122°24'0 0.0
2017-Feb-14 18:33N 47°31' W 122°24'3 2.8
2017-Feb-14 17:33N 47°31' W 122°28'0 0.2
2017-Feb-14 16:33N 47°31' W 122°28'2 2.4
2017-Feb-14 15:33N 47°31' W 122°24'0 0.1
2017-Feb-14 14:34N 47°31' W 122°24'3 2.6
2017-Feb-14 13:33N 47°31' W 122°28'0 0.0
2017-Feb-14 12:33N 47°31' W 122°28'1 1.1
2017-Feb-14 11:33N 47°31' W 122°29'1 1.1
2017-Feb-14 10:33N 47°31' W 122°28'1 1.2
2017-Feb-14 09:33N 47°31' W 122°30'2 1.8
2017-Feb-14 08:33N 47°31' W 122°27'2 2.2
2017-Feb-14 07:33N 47°31' W 122°24'2 2.1
2017-Feb-14 06:33N 47°31' W 122°27'1 0.5
2017-Feb-14 05:34N 47°31' W 122°28'0 0.2
2017-Feb-14 04:34N 47°31' W 122°28'3 2.8
2017-Feb-14 03:33N 47°31' W 122°24'4 4.0
2017-Feb-14 02:33N 47°31' W 122°30'4 4.0
2017-Feb-14 01:33N 47°31' W 122°24'0 0.1
2017-Feb-14 00:34N 47°31' W 122°24'0 0.1
2017-Feb-13 23:33N 47°31' W 122°24'4 3.9
2017-Feb-13 22:33N 47°31' W 122°30'2 2.3
2017-Feb-13 21:33N 47°31' W 122°26'1 1.1
2017-Feb-13 20:34N 47°31' W 122°28'3 2.7
2017-Feb-13 19:33N 47°31' W 122°24'0 0.0
2017-Feb-13 18:33N 47°31' W 122°24'3 2.8
2017-Feb-13 17:33N 47°31' W 122°28'0 0.1
2017-Feb-13 16:33N 47°31' W 122°28'2 2.4
2017-Feb-13 15:34N 47°31' W 122°24'0 0.1
2017-Feb-13 14:34N 47°31' W 122°24'3 2.5
2017-Feb-13 13:33N 47°31' W 122°28'0 0.0
2017-Feb-13 12:33N 47°31' W 122°28'1 1.0
2017-Feb-13 11:33N 47°31' W 122°29'1 1.0
2017-Feb-13 10:33N 47°31' W 122°28'1 1.3
2017-Feb-13 09:33N 47°31' W 122°30'2 1.6
2017-Feb-13 08:33N 47°31' W 122°27'2 2.4
2017-Feb-13 07:33N 47°31' W 122°24'2 2.3
2017-Feb-13 06:33N 47°31' W 122°27'0 0.2
2017-Feb-13 05:33N 47°31' W 122°27'1 1.3
2017-Feb-13 04:33N 47°31' W 122°29'4 3.8
2017-Feb-13 03:33N 47°31' W 122°24'3 2.9
2017-Feb-13 02:33N 47°31' W 122°28'0 0.2
2017-Feb-13 01:33N 47°31' W 122°28'1 0.9
2017-Feb-13 00:34N 47°31' W 122°27'1 0.8
2017-Feb-12 23:33N 47°31' W 122°25'1 1.1
2017-Feb-12 22:33N 47°31' W 122°24'3 2.8
2017-Feb-12 21:34N 47°31' W 122°28'3 2.8
2017-Feb-12 20:33N 47°31' W 122°24'10 9.5
2017-Feb-12 19:33N 47°40' W 122°28'1715.3
2017-Feb-12 18:26N 47°57' W 122°34'1513.9
2017-Feb-12 17:23N 48°10' W 122°45'1215.0
2017-Feb-12 16:33N 48°22' W 122°46'9 8.6
2017-Feb-12 15:30N 48°30' W 122°41'0 0.0
2017-Feb-12 14:31N 48°30' W 122°41'0 0.0
2017-Feb-12 13:33N 48°30' W 122°41'0 0.0
2017-Feb-12 11:30N 48°30' W 122°41'0 0.0
2017-Feb-12 09:26N 48°30' W 122°41'0 0.0
2017-Feb-12 08:22N 48°30' W 122°41'0 0.0
2017-Feb-12 05:34N 48°30' W 122°41'0 0.0
2017-Feb-12 04:34N 48°30' W 122°41'0 0.0
2017-Feb-12 03:33N 48°30' W 122°41'0 0.0
2017-Feb-12 02:33N 48°30' W 122°41'0 0.0
2017-Feb-12 01:34N 48°30' W 122°41'0 0.0
2017-Feb-12 00:31N 48°30' W 122°41'0 0.0
2017-Feb-11 23:30N 48°30' W 122°41'0 0.0
2017-Feb-11 22:28N 48°30' W 122°41'0 0.0
2017-Feb-11 21:33N 48°30' W 122°41'0 0.0
2017-Feb-11 20:31N 48°30' W 122°41'0 0.0
2017-Feb-11 19:34N 48°30' W 122°41'  
Track history (hours):
 
Tides and Currents Weather Stations Pressure Air Temp Water Temp Dewpoint Dewpoint Depression Visibility Wind Speed Wind Dir Waves Ship Positions

Cathlamet

Owner: WASHINGTON, STATE OF; Dept. of Transportation, OLYMPIA, WA. More information available from US FCC via Universal Licensing System and Coast Guard Vessel Documentation Center.

Last reported at 2017-Feb-21 18:34 UTC. Time now 2017-Feb-21 19:05 UTC.
Position N 47°31' W 122°28'.

Length 100 m.

Type: Passenger vessel. MMSI: 366773070.

Date/timePositionNaut miles runAvg speedWind from/ knotsBaromVisibWave heightAir tempDewpointWater temp
2017-Feb-21 18:34N 47°31' W 122°28'0 0.2
2017-Feb-21 17:33N 47°31' W 122°28'3 2.7
2017-Feb-21 16:33N 47°31' W 122°24'3 2.7
2017-Feb-21 15:33N 47°31' W 122°28'0 0.1
2017-Feb-21 14:33N 47°31' W 122°28'0 0.0
2017-Feb-21 13:33N 47°31' W 122°28'0 0.0
2017-Feb-21 12:33N 47°31' W 122°28'1 0.5
2017-Feb-21 11:34N 47°31' W 122°28'1 0.5
2017-Feb-21 10:33N 47°31' W 122°28'1 1.3
2017-Feb-21 09:33N 47°31' W 122°30'2 1.9
2017-Feb-21 08:33N 47°31' W 122°27'2 2.1
2017-Feb-21 07:33N 47°31' W 122°24'3 2.5
2017-Feb-21 06:34N 47°31' W 122°28'2 1.5
2017-Feb-21 05:33N 47°31' W 122°30'2 1.5
2017-Feb-21 04:34N 47°31' W 122°28'0 0.3
2017-Feb-21 03:33N 47°31' W 122°28'3 2.8
2017-Feb-21 02:34N 47°31' W 122°24'3 2.8
2017-Feb-21 01:34N 47°31' W 122°28'0 0.0
2017-Feb-21 00:33N 47°31' W 122°28'1 0.8
2017-Feb-20 23:34N 47°31' W 122°27'2 1.8
2017-Feb-20 22:33N 47°31' W 122°24'3 2.6
2017-Feb-20 21:34N 47°31' W 122°28'1 1.3
2017-Feb-20 20:33N 47°31' W 122°26'1 1.2
2017-Feb-20 19:33N 47°31' W 122°28'0 0.1
2017-Feb-20 18:33N 47°31' W 122°28'0 0.3
2017-Feb-20 17:34N 47°31' W 122°28'3 2.7
2017-Feb-20 16:33N 47°31' W 122°24'3 2.8
2017-Feb-20 15:34N 47°31' W 122°28'0 0.1
2017-Feb-20 14:33N 47°31' W 122°28'0 0.0
2017-Feb-20 13:34N 47°31' W 122°28'0 0.0
2017-Feb-20 12:33N 47°31' W 122°28'0 0.0
2017-Feb-20 11:33N 47°31' W 122°28'0 0.0
2017-Feb-20 10:33N 47°31' W 122°28'0 0.0
2017-Feb-20 09:33N 47°31' W 122°28'0 0.0
2017-Feb-20 08:33N 47°31' W 122°28'0 0.0
2017-Feb-20 07:34N 47°31' W 122°28'0 0.0
2017-Feb-20 06:33N 47°31' W 122°28'1 1.2
2017-Feb-20 05:34N 47°31' W 122°30'1 1.4
2017-Feb-20 04:33N 47°31' W 122°28'0 0.3
2017-Feb-20 03:33N 47°31' W 122°27'0 0.5
2017-Feb-20 02:33N 47°31' W 122°28'1 0.6
2017-Feb-20 01:34N 47°31' W 122°27'2 1.6
2017-Feb-20 00:34N 47°31' W 122°30'4 4.0
2017-Feb-19 23:33N 47°31' W 122°24'3 2.8
2017-Feb-19 22:34N 47°31' W 122°28'0 0.1
2017-Feb-19 21:34N 47°31' W 122°28'2 2.1
2017-Feb-19 20:33N 47°31' W 122°25'2 1.6
2017-Feb-19 19:33N 47°31' W 122°27'1 0.7
2017-Feb-19 18:33N 47°31' W 122°26'2 1.5
2017-Feb-19 17:33N 47°31' W 122°24'4 4.0
2017-Feb-19 16:33N 47°31' W 122°30'4 3.9
2017-Feb-19 15:33N 47°31' W 122°24'3 2.6
2017-Feb-19 14:33N 47°31' W 122°28'0 0.0
2017-Feb-19 13:33N 47°31' W 122°28'0 0.0
2017-Feb-19 12:33N 47°31' W 122°28'0 0.0
2017-Feb-19 11:33N 47°31' W 122°28'0 0.0
2017-Feb-19 10:33N 47°31' W 122°28'0 0.0
2017-Feb-19 09:33N 47°31' W 122°28'0 0.0
2017-Feb-19 08:33N 47°31' W 122°28'0 0.0
2017-Feb-19 07:33N 47°31' W 122°28'0 0.0
2017-Feb-19 06:33N 47°31' W 122°28'1 1.0
2017-Feb-19 05:34N 47°31' W 122°29'1 1.1
2017-Feb-19 04:33N 47°31' W 122°28'2 1.9
2017-Feb-19 03:33N 47°31' W 122°25'3 3.2
2017-Feb-19 02:33N 47°31' W 122°30'4 4.1
2017-Feb-19 01:33N 47°31' W 122°24'3 3.2
2017-Feb-19 00:34N 47°31' W 122°28'2 2.0
2017-Feb-18 23:33N 47°31' W 122°25'2 1.7
2017-Feb-18 22:34N 47°31' W 122°28'0 0.0
2017-Feb-18 21:33N 47°31' W 122°28'0 0.2
2017-Feb-18 20:34N 47°31' W 122°28'0 0.2
2017-Feb-18 19:34N 47°31' W 122°28'1 1.1
2017-Feb-18 18:34N 47°31' W 122°26'2 1.6
2017-Feb-18 17:34N 47°31' W 122°24'4 4.0
2017-Feb-18 16:33N 47°31' W 122°30'4 4.0
2017-Feb-18 15:34N 47°31' W 122°24'3 2.7
2017-Feb-18 14:33N 47°31' W 122°28'0 0.0
2017-Feb-18 13:33N 47°31' W 122°28'0 0.0
2017-Feb-18 12:33N 47°31' W 122°28'0 0.0
2017-Feb-18 11:33N 47°31' W 122°28'0 0.0
2017-Feb-18 10:33N 47°31' W 122°28'0 0.0
2017-Feb-18 09:33N 47°31' W 122°28'0 0.0
2017-Feb-18 08:33N 47°31' W 122°28'0 0.0
2017-Feb-18 07:33N 47°31' W 122°28'0 0.0
2017-Feb-18 06:33N 47°31' W 122°28'0 0.5
2017-Feb-18 05:33N 47°31' W 122°27'1 0.6
2017-Feb-18 04:33N 47°31' W 122°28'3 3.0
2017-Feb-18 03:33N 47°31' W 122°24'4 4.1
2017-Feb-18 02:33N 47°31' W 122°30'4 4.1
2017-Feb-18 01:33N 47°31' W 122°24'0 0.0
2017-Feb-18 00:33N 47°31' W 122°24'0 0.0
2017-Feb-17 23:34N 47°31' W 122°24'3 3.2
2017-Feb-17 22:33N 47°31' W 122°29'2 1.6
2017-Feb-17 21:34N 47°31' W 122°26'2 1.7
2017-Feb-17 20:33N 47°31' W 122°29'3 3.5
2017-Feb-17 19:33N 47°31' W 122°24'0 0.0
2017-Feb-17 18:33N 47°31' W 122°24'3 2.8
2017-Feb-17 17:34N 47°31' W 122°28'0 0.0
2017-Feb-17 16:33N 47°31' W 122°28'3 2.7
2017-Feb-17 15:33N 47°31' W 122°24'0 0.2
2017-Feb-17 14:33N 47°31' W 122°24'3 2.5
2017-Feb-17 13:33N 47°31' W 122°28'0 0.0
2017-Feb-17 12:34N 47°31' W 122°28'1 0.8
2017-Feb-17 11:33N 47°31' W 122°29'1 0.8
2017-Feb-17 10:33N 47°31' W 122°28'1 1.3
2017-Feb-17 09:34N 47°31' W 122°30'2 1.9
2017-Feb-17 08:33N 47°31' W 122°27'2 2.1
2017-Feb-17 07:33N 47°31' W 122°24'3 2.7
2017-Feb-17 06:34N 47°31' W 122°28'0 0.1
2017-Feb-17 05:34N 47°31' W 122°28'0 0.5
2017-Feb-17 04:33N 47°31' W 122°28'3 2.7
2017-Feb-17 03:33N 47°31' W 122°24'4 3.7
2017-Feb-17 02:33N 47°31' W 122°30'4 4.1
2017-Feb-17 01:33N 47°31' W 122°24'0 0.0
2017-Feb-17 00:33N 47°31' W 122°24'0 0.0
2017-Feb-16 23:33N 47°31' W 122°24'3 3.5
2017-Feb-16 22:33N 47°32' W 122°29'2 1.9
2017-Feb-16 21:34N 47°31' W 122°26'1 1.1
2017-Feb-16 20:34N 47°31' W 122°28'3 2.7
2017-Feb-16 19:33N 47°31' W 122°24'1 0.5
2017-Feb-16 18:34N 47°31' W 122°25'2 2.3
2017-Feb-16 17:33N 47°31' W 122°28'0 0.2
2017-Feb-16 16:34N 47°31' W 122°28'3 2.6
2017-Feb-16 15:34N 47°31' W 122°24'0 0.0
2017-Feb-16 14:34N 47°31' W 122°24'3 2.7
2017-Feb-16 13:34N 47°31' W 122°28'0 0.1
2017-Feb-16 12:34N 47°31' W 122°28'1 0.8
2017-Feb-16 11:34N 47°31' W 122°27'1 0.8
2017-Feb-16 10:34N 47°31' W 122°28'1 1.3
2017-Feb-16 09:34N 47°31' W 122°30'1 1.1
2017-Feb-16 08:33N 47°31' W 122°28'3 2.9
2017-Feb-16 07:33N 47°31' W 122°24'3 2.7
2017-Feb-16 06:33N 47°31' W 122°28'0 0.3
2017-Feb-16 05:33N 47°31' W 122°27'0 0.4
2017-Feb-16 04:34N 47°31' W 122°28'2 2.4
2017-Feb-16 03:33N 47°31' W 122°24'4 3.7
2017-Feb-16 02:33N 47°31' W 122°30'4 4.0
2017-Feb-16 01:33N 47°31' W 122°24'0 0.0
2017-Feb-16 00:33N 47°31' W 122°24'0 0.0
2017-Feb-15 23:33N 47°31' W 122°24'2 2.3
2017-Feb-15 22:33N 47°32' W 122°27'1 1.0
2017-Feb-15 21:33N 47°31' W 122°26'1 1.4
2017-Feb-15 20:34N 47°31' W 122°28'3 2.7
2017-Feb-15 19:33N 47°31' W 122°24'0 0.0
2017-Feb-15 18:34N 47°31' W 122°24'3 2.8
2017-Feb-15 17:33N 47°31' W 122°28'0 0.0
2017-Feb-15 16:33N 47°31' W 122°28'2 2.4
2017-Feb-15 15:33N 47°31' W 122°24'0 0.1
2017-Feb-15 14:33N 47°31' W 122°24'3 2.6
2017-Feb-15 13:34N 47°31' W 122°28'0 0.0
2017-Feb-15 12:33N 47°31' W 122°28'1 0.8
2017-Feb-15 11:33N 47°31' W 122°29'1 0.8
2017-Feb-15 10:33N 47°31' W 122°28'1 1.2
2017-Feb-15 09:33N 47°31' W 122°30'2 1.9
2017-Feb-15 08:33N 47°31' W 122°27'2 2.1
2017-Feb-15 07:33N 47°31' W 122°24'2 2.4
2017-Feb-15 06:33N 47°31' W 122°27'0 0.4
2017-Feb-15 05:33N 47°31' W 122°28'0 0.1
2017-Feb-15 04:34N 47°31' W 122°28'3 2.7
2017-Feb-15 03:33N 47°31' W 122°24'4 4.0
2017-Feb-15 02:33N 47°31' W 122°30'4 4.0
2017-Feb-15 01:33N 47°31' W 122°24'0 0.0
2017-Feb-15 00:33N 47°31' W 122°24'0 0.0
2017-Feb-14 23:33N 47°31' W 122°24'2 2.0
2017-Feb-14 22:33N 47°32' W 122°27'1 0.7
2017-Feb-14 21:34N 47°31' W 122°26'2 1.7
2017-Feb-14 20:33N 47°31' W 122°28'3 3.1
2017-Feb-14 19:33N 47°31' W 122°24'0 0.0
2017-Feb-14 18:33N 47°31' W 122°24'3 2.8
2017-Feb-14 17:33N 47°31' W 122°28'0 0.2
2017-Feb-14 16:33N 47°31' W 122°28'2 2.4
2017-Feb-14 15:33N 47°31' W 122°24'0 0.1
2017-Feb-14 14:34N 47°31' W 122°24'3 2.6
2017-Feb-14 13:33N 47°31' W 122°28'0 0.0
2017-Feb-14 12:33N 47°31' W 122°28'1 1.1
2017-Feb-14 11:33N 47°31' W 122°29'1 1.1
2017-Feb-14 10:33N 47°31' W 122°28'1 1.2
2017-Feb-14 09:33N 47°31' W 122°30'2 1.8
2017-Feb-14 08:33N 47°31' W 122°27'2 2.2
2017-Feb-14 07:33N 47°31' W 122°24'2 2.1
2017-Feb-14 06:33N 47°31' W 122°27'1 0.5
2017-Feb-14 05:34N 47°31' W 122°28'0 0.2
2017-Feb-14 04:34N 47°31' W 122°28'3 2.8
2017-Feb-14 03:33N 47°31' W 122°24'4 4.0
2017-Feb-14 02:33N 47°31' W 122°30'4 4.0
2017-Feb-14 01:33N 47°31' W 122°24'0 0.1
2017-Feb-14 00:34N 47°31' W 122°24'0 0.1
2017-Feb-13 23:33N 47°31' W 122°24'4 3.9
2017-Feb-13 22:33N 47°31' W 122°30'2 2.3
2017-Feb-13 21:33N 47°31' W 122°26'1 1.1
2017-Feb-13 20:34N 47°31' W 122°28'3 2.7
2017-Feb-13 19:33N 47°31' W 122°24'0 0.0
2017-Feb-13 18:33N 47°31' W 122°24'3 2.8
2017-Feb-13 17:33N 47°31' W 122°28'0 0.1
2017-Feb-13 16:33N 47°31' W 122°28'2 2.4
2017-Feb-13 15:34N 47°31' W 122°24'0 0.1
2017-Feb-13 14:34N 47°31' W 122°24'3 2.5
2017-Feb-13 13:33N 47°31' W 122°28'0 0.0
2017-Feb-13 12:33N 47°31' W 122°28'1 1.0
2017-Feb-13 11:33N 47°31' W 122°29'1 1.0
2017-Feb-13 10:33N 47°31' W 122°28'1 1.3
2017-Feb-13 09:33N 47°31' W 122°30'2 1.6
2017-Feb-13 08:33N 47°31' W 122°27'2 2.4
2017-Feb-13 07:33N 47°31' W 122°24'2 2.3
2017-Feb-13 06:33N 47°31' W 122°27'0 0.2
2017-Feb-13 05:33N 47°31' W 122°27'1 1.3
2017-Feb-13 04:33N 47°31' W 122°29'4 3.8
2017-Feb-13 03:33N 47°31' W 122°24'3 2.9
2017-Feb-13 02:33N 47°31' W 122°28'0 0.2
2017-Feb-13 01:33N 47°31' W 122°28'1 0.9
2017-Feb-13 00:34N 47°31' W 122°27'1 0.8
2017-Feb-12 23:33N 47°31' W 122°25'1 1.1
2017-Feb-12 22:33N 47°31' W 122°24'3 2.8
2017-Feb-12 21:34N 47°31' W 122°28'3 2.8
2017-Feb-12 20:33N 47°31' W 122°24'10 9.5
2017-Feb-12 19:33N 47°40' W 122°28'1715.3
2017-Feb-12 18:26N 47°57' W 122°34'1513.9
2017-Feb-12 17:23N 48°10' W 122°45'1215.0
2017-Feb-12 16:33N 48°22' W 122°46'9 8.6
2017-Feb-12 15:30N 48°30' W 122°41'0 0.0
2017-Feb-12 14:31N 48°30' W 122°41'0 0.0
2017-Feb-12 13:33N 48°30' W 122°41'0 0.0
2017-Feb-12 11:30N 48°30' W 122°41'0 0.0
2017-Feb-12 09:26N 48°30' W 122°41'0 0.0
2017-Feb-12 08:22N 48°30' W 122°41'0 0.0
2017-Feb-12 05:34N 48°30' W 122°41'0 0.0
2017-Feb-12 04:34N 48°30' W 122°41'0 0.0
2017-Feb-12 03:33N 48°30' W 122°41'0 0.0
2017-Feb-12 02:33N 48°30' W 122°41'0 0.0
2017-Feb-12 01:34N 48°30' W 122°41'0 0.0
2017-Feb-12 00:31N 48°30' W 122°41'0 0.0
2017-Feb-11 23:30N 48°30' W 122°41'0 0.0
2017-Feb-11 22:28N 48°30' W 122°41'0 0.0
2017-Feb-11 21:33N 48°30' W 122°41'0 0.0
2017-Feb-11 20:31N 48°30' W 122°41'0 0.0
2017-Feb-11 19:34N 48°30' W 122°41'  

Dump ship's entire track history